Time;durP1;ratioP1;P1;durP2;ratioP2;P2;SDS_P1;SDS_P2;PMS_P1;PMS_P2;Temp;Humidity;BMP_temperature;BMP_pressure;BME280_temperature;BME280_humidity;BME280_pressure;Samples;Min_cycle;Max_cycle;Signal;HPM_P1;HPM_P2
2023/09/19 00:01:12;;;;;;;3.92;1.33;;;;;;;;;;4990047;28;20120;-68
2023/09/19 00:03:38;;;;;;;5.93;1.30;;;;;;;;;;5000997;28;20149;-68
2023/09/19 00:06:04;;;;;;;3.53;1.05;;;;;;;;;;4990812;28;20038;-68
2023/09/19 00:08:31;;;;;;;5.03;1.45;;;;;;;;;;4992960;28;20116;-69
2023/09/19 00:11:05;;;;;;;5.43;1.20;;;;;;;;;;4994427;28;20506;-68
2023/09/19 00:13:31;;;;;;;2.33;0.77;;;;;;;;;;4980736;28;20440;-68
2023/09/19 00:15:58;;;;;;;3.65;0.82;;;;;;;;;;4980831;28;20042;-68
2023/09/19 00:18:32;;;;;;;5.82;1.27;;;;;;;;;;4985310;28;20384;-68
2023/09/19 00:21:01;;;;;;;3.35;0.98;;;;;;;;;;4993538;28;20052;-68
2023/09/19 00:23:28;;;;;;;4.65;1.15;;;;;;;;;;4985677;28;20038;-69
2023/09/19 00:25:57;;;;;;;3.28;1.00;;;;;;;;;;4994240;28;20447;-69
2023/09/19 00:28:23;;;;;;;2.90;1.00;;;;;;;;;;4991921;28;20051;-68
2023/09/19 00:30:54;;;;;;;4.13;1.00;;;;;;;;;;4992757;28;20045;-68
2023/09/19 00:33:20;;;;;;;5.22;1.10;;;;;;;;;;4993899;28;20121;-68
2023/09/19 00:35:53;;;;;;;4.85;1.13;;;;;;;;;;4998974;28;20120;-68
2023/09/19 00:38:26;;;;;;;5.28;1.17;;;;;;;;;;4984704;28;20092;-68
2023/09/19 00:40:53;;;;;;;5.18;1.70;;;;;;;;;;4986017;28;20345;-68
2023/09/19 00:43:19;;;;;;;5.50;1.30;;;;;;;;;;4988661;28;20042;-68
2023/09/19 00:45:47;;;;;;;3.95;1.40;;;;;;;;;;4979267;28;20436;-68
2023/09/19 00:48:14;;;;;;;7.72;1.70;;;;;;;;;;4983232;28;20113;-68
2023/09/19 00:50:42;;;;;;;4.35;1.30;;;;;;;;;;4992316;28;20125;-68
2023/09/19 00:53:09;;;;;;;3.85;1.42;;;;;;;;;;4993979;28;20049;-68
2023/09/19 00:55:42;;;;;;;4.07;1.40;;;;;;;;;;4986843;28;20116;-68
2023/09/19 00:58:08;;;;;;;8.48;1.80;;;;;;;;;;4993111;28;20110;-68
2023/09/19 01:00:34;;;;;;;6.13;1.75;;;;;;;;;;4991906;28;20034;-68
2023/09/19 01:03:01;;;;;;;7.07;1.77;;;;;;;;;;4992432;28;20042;-68
2023/09/19 01:05:28;;;;;;;9.32;1.88;;;;;;;;;;4992357;28;20691;-68
2023/09/19 01:07:54;;;;;;;9.38;1.77;;;;;;;;;;4986899;28;20548;-68
2023/09/19 01:10:20;;;;;;;8.55;2.13;;;;;;;;;;4989615;28;20080;-68
2023/09/19 01:12:55;;;;;;;9.18;1.58;;;;;;;;;;4992581;28;20126;-69
2023/09/19 01:15:40;;;;;;;5.53;1.80;;;;;;;;;;4991873;28;20054;-68
2023/09/19 01:18:06;;;;;;;6.35;1.70;;;;;;;;;;4989658;28;20038;-68
2023/09/19 01:20:40;;;;;;;7.35;1.65;;;;;;;;;;4978120;28;20136;-68
2023/09/19 01:23:24;;;;;;;7.90;2.00;;;;;;;;;;4984441;28;20042;-68
2023/09/19 01:26:19;;;;;;;4.35;1.50;;;;;;;;;;4990475;28;20069;-68
2023/09/19 01:28:54;;;;;;;7.78;1.80;;;;;;;;;;4980221;28;20074;-68
2023/09/19 01:31:20;;;;;;;6.75;1.65;;;;;;;;;;5015439;23;20562;-70
2023/09/19 01:34:03;;;;;;;7.70;1.85;;;;;;;;;;5025062;28;20048;-70
2023/09/19 01:36:30;;;;;;;9.13;2.45;;;;;;;;;;5003202;28;20034;-70
2023/09/19 01:39:00;;;;;;;5.55;1.88;;;;;;;;;;5012748;28;20165;-70
2023/09/19 01:41:44;;;;;;;9.15;1.77;;;;;;;;;;5004248;28;20488;-70
2023/09/19 01:44:14;;;;;;;9.77;2.25;;;;;;;;;;5006649;28;20107;-70
2023/09/19 01:46:41;;;;;;;6.68;2.33;;;;;;;;;;5011414;28;20041;-70
2023/09/19 01:49:27;;;;;;;7.35;2.45;;;;;;;;;;5012070;28;20045;-70
2023/09/19 01:52:03;;;;;;;6.70;2.15;;;;;;;;;;5009728;28;20033;-71
2023/09/19 01:54:43;;;;;;;7.47;2.42;;;;;;;;;;5011273;28;20037;-71
2023/09/19 01:57:14;;;;;;;7.28;2.35;;;;;;;;;;5011407;28;20038;-70
2023/09/19 01:59:46;;;;;;;5.50;2.22;;;;;;;;;;5006840;28;20046;-70
2023/09/19 02:02:12;;;;;;;7.93;2.30;;;;;;;;;;5007463;28;20034;-70
2023/09/19 02:04:38;;;;;;;7.28;1.80;;;;;;;;;;5009849;28;20133;-70
2023/09/19 02:07:05;;;;;;;8.18;2.10;;;;;;;;;;5008541;28;20180;-70
2023/09/19 02:09:35;;;;;;;9.60;2.40;;;;;;;;;;4996203;28;20042;-70
2023/09/19 02:12:01;;;;;;;9.90;2.75;;;;;;;;;;5001374;28;20045;-70
2023/09/19 02:14:29;;;;;;;8.70;2.45;;;;;;;;;;4995118;28;20615;-70
2023/09/19 02:16:56;;;;;;;9.50;2.45;;;;;;;;;;5004170;28;20038;-70
2023/09/19 02:19:22;;;;;;;12.77;2.45;;;;;;;;;;5002841;28;20085;-70
2023/09/19 02:21:48;;;;;;;9.00;2.33;;;;;;;;;;5012279;28;20123;-70
2023/09/19 02:24:15;;;;;;;5.60;2.05;;;;;;;;;;5010667;28;20045;-70
2023/09/19 02:26:41;;;;;;;6.75;2.28;;;;;;;;;;4998900;28;20555;-70
2023/09/19 02:29:07;;;;;;;7.15;2.13;;;;;;;;;;5003908;28;20168;-70
2023/09/19 02:31:33;;;;;;;8.88;2.42;;;;;;;;;;4996738;28;20038;-70
2023/09/19 02:34:00;;;;;;;7.95;2.40;;;;;;;;;;5003965;28;20038;-70
2023/09/19 02:36:26;;;;;;;9.80;2.28;;;;;;;;;;5003079;28;20038;-70
2023/09/19 02:38:52;;;;;;;10.55;2.50;;;;;;;;;;4992052;28;20037;-70
2023/09/19 02:41:18;;;;;;;6.63;2.22;;;;;;;;;;5009587;28;20041;-70
2023/09/19 02:43:44;;;;;;;7.50;2.10;;;;;;;;;;5011282;28;20034;-70
2023/09/19 02:46:11;;;;;;;8.65;1.98;;;;;;;;;;5010937;28;20148;-70
2023/09/19 02:48:38;;;;;;;7.28;2.30;;;;;;;;;;5005959;28;20038;-70
2023/09/19 02:51:04;;;;;;;6.60;2.03;;;;;;;;;;4999633;28;20054;-70
2023/09/19 02:53:31;;;;;;;11.10;2.08;;;;;;;;;;5014970;28;20046;-70
2023/09/19 02:55:58;;;;;;;7.45;2.33;;;;;;;;;;5015126;28;20110;-70
2023/09/19 02:58:25;;;;;;;8.18;2.20;;;;;;;;;;4995959;28;20050;-70
2023/09/19 03:00:51;;;;;;;7.03;2.10;;;;;;;;;;5010252;28;20041;-70
2023/09/19 03:03:17;;;;;;;7.88;2.47;;;;;;;;;;5014956;28;20476;-70
2023/09/19 03:05:47;;;;;;;10.15;2.78;;;;;;;;;;5001526;28;20030;-70
2023/09/19 03:08:14;;;;;;;9.13;2.00;;;;;;;;;;5004943;28;20408;-70
2023/09/19 03:10:41;;;;;;;7.38;2.00;;;;;;;;;;5008568;28;20609;-70
2023/09/19 03:13:09;;;;;;;7.25;1.80;;;;;;;;;;5014785;28;20120;-70
2023/09/19 03:15:38;;;;;;;6.13;2.00;;;;;;;;;;5014983;28;20049;-70
2023/09/19 03:18:04;;;;;;;9.63;1.95;;;;;;;;;;5009703;28;20404;-70
2023/09/19 03:20:30;;;;;;;6.10;2.00;;;;;;;;;;5006010;28;20042;-70
2023/09/19 03:22:57;;;;;;;6.80;2.17;;;;;;;;;;4998395;28;20129;-70
2023/09/19 03:25:24;;;;;;;7.35;1.88;;;;;;;;;;4997669;28;20396;-70
2023/09/19 03:27:50;;;;;;;11.00;2.03;;;;;;;;;;5000025;28;20058;-70
2023/09/19 03:30:16;;;;;;;6.32;1.90;;;;;;;;;;5004423;28;20034;-70
2023/09/19 03:32:46;;;;;;;9.77;2.20;;;;;;;;;;5014727;28;20484;-70
2023/09/19 03:35:13;;;;;;;6.60;1.67;;;;;;;;;;5010639;28;20038;-70
2023/09/19 03:37:40;;;;;;;6.75;1.70;;;;;;;;;;4995243;28;20038;-70
2023/09/19 03:40:07;;;;;;;6.20;1.80;;;;;;;;;;4995930;28;20077;-70
2023/09/19 03:42:35;;;;;;;6.85;1.70;;;;;;;;;;5007109;28;20064;-70
2023/09/19 03:45:04;;;;;;;9.65;2.00;;;;;;;;;;5014161;28;20044;-70
2023/09/19 03:47:30;;;;;;;4.57;1.95;;;;;;;;;;5006050;28;20044;-70
2023/09/19 03:49:56;;;;;;;7.60;1.77;;;;;;;;;;5008141;28;20042;-70
2023/09/19 03:52:22;;;;;;;7.60;1.75;;;;;;;;;;5004346;28;20042;-70
2023/09/19 03:54:48;;;;;;;6.13;1.70;;;;;;;;;;5001094;28;20164;-70
2023/09/19 03:57:17;;;;;;;7.75;2.30;;;;;;;;;;5004733;28;20049;-70
2023/09/19 03:59:43;;;;;;;8.40;1.98;;;;;;;;;;5006559;28;20056;-70
2023/09/19 04:02:21;;;;;;;6.50;2.10;;;;;;;;;;4999354;28;20035;-70
2023/09/19 04:04:47;;;;;;;9.60;2.38;;;;;;;;;;5006983;28;20042;-70
2023/09/19 04:07:13;;;;;;;8.82;1.95;;;;;;;;;;5009853;28;20029;-70
2023/09/19 04:09:39;;;;;;;8.52;2.22;;;;;;;;;;5000746;28;20042;-70
2023/09/19 04:12:05;;;;;;;11.00;2.30;;;;;;;;;;5000421;28;20085;-70
2023/09/19 04:14:31;;;;;;;9.05;2.03;;;;;;;;;;4997152;28;20423;-70
2023/09/19 04:16:57;;;;;;;6.47;2.40;;;;;;;;;;5005974;28;20095;-70
2023/09/19 04:19:23;;;;;;;7.63;2.35;;;;;;;;;;5002429;28;20042;-70
2023/09/19 04:21:49;;;;;;;10.73;2.38;;;;;;;;;;5004608;28;20097;-70
2023/09/19 04:24:15;;;;;;;9.27;2.90;;;;;;;;;;5007357;28;20057;-70
2023/09/19 04:26:42;;;;;;;10.35;2.40;;;;;;;;;;5002656;28;20486;-70
2023/09/19 04:29:10;;;;;;;9.65;2.50;;;;;;;;;;5010845;28;21552;-71
2023/09/19 04:31:37;;;;;;;9.70;2.45;;;;;;;;;;5012394;28;20045;-71
2023/09/19 04:34:04;;;;;;;10.68;2.47;;;;;;;;;;4997921;28;20439;-71
2023/09/19 04:36:30;;;;;;;7.15;1.92;;;;;;;;;;5001299;28;20030;-71
2023/09/19 04:38:56;;;;;;;12.38;2.58;;;;;;;;;;5000644;28;20041;-71
2023/09/19 04:41:22;;;;;;;13.23;2.35;;;;;;;;;;5002641;28;20174;-71
2023/09/19 04:43:50;;;;;;;7.15;2.17;;;;;;;;;;5003468;28;20030;-71
2023/09/19 04:46:17;;;;;;;10.05;2.15;;;;;;;;;;4997110;28;20034;-71
2023/09/19 04:48:43;;;;;;;10.18;2.22;;;;;;;;;;5012692;28;20144;-71
2023/09/19 04:51:10;;;;;;;7.68;2.75;;;;;;;;;;5001078;28;20050;-71
2023/09/19 04:53:36;;;;;;;6.75;1.77;;;;;;;;;;4995983;28;20049;-71
2023/09/19 04:56:03;;;;;;;7.95;2.25;;;;;;;;;;5007642;28;20539;-71
2023/09/19 04:58:29;;;;;;;9.18;2.58;;;;;;;;;;5005586;28;20042;-71
2023/09/19 05:00:56;;;;;;;10.43;2.00;;;;;;;;;;5000139;28;20477;-71
2023/09/19 05:03:22;;;;;;;12.45;2.22;;;;;;;;;;4996924;28;20046;-71
2023/09/19 05:05:48;;;;;;;17.25;3.45;;;;;;;;;;5009566;28;20073;-71
2023/09/19 05:08:14;;;;;;;10.20;2.85;;;;;;;;;;5010541;28;20073;-71
2023/09/19 05:10:40;;;;;;;11.50;2.45;;;;;;;;;;4999763;28;20049;-71
2023/09/19 05:13:07;;;;;;;9.73;1.95;;;;;;;;;;5001012;28;20076;-71
2023/09/19 05:15:35;;;;;;;9.27;2.33;;;;;;;;;;5005307;28;20095;-71
2023/09/19 05:18:01;;;;;;;8.10;2.20;;;;;;;;;;4996143;28;20093;-71
2023/09/19 05:20:32;;;;;;;12.27;2.35;;;;;;;;;;5003434;28;20042;-71
2023/09/19 05:23:02;;;;;;;10.07;2.58;;;;;;;;;;5007324;28;20606;-71
2023/09/19 05:25:29;;;;;;;8.15;1.92;;;;;;;;;;5000537;28;20463;-71
2023/09/19 05:27:57;;;;;;;7.10;2.38;;;;;;;;;;4997433;28;20045;-71
2023/09/19 05:30:23;;;;;;;12.52;2.55;;;;;;;;;;5010205;28;20084;-71
2023/09/19 05:32:51;;;;;;;6.50;2.03;;;;;;;;;;5004458;28;20045;-71
2023/09/19 05:35:17;;;;;;;10.65;2.13;;;;;;;;;;5011620;28;20696;-71
2023/09/19 05:37:43;;;;;;;9.38;1.83;;;;;;;;;;5010088;28;20046;-71
2023/09/19 05:40:10;;;;;;;10.07;2.28;;;;;;;;;;5011741;28;20513;-71
2023/09/19 05:42:36;;;;;;;10.35;2.17;;;;;;;;;;5012360;28;20042;-71
2023/09/19 05:45:02;;;;;;;8.63;2.00;;;;;;;;;;5011689;28;20037;-71
2023/09/19 05:47:28;;;;;;;12.38;3.03;;;;;;;;;;5011386;28;20173;-71
2023/09/19 05:49:54;;;;;;;9.23;2.08;;;;;;;;;;5007109;28;20501;-71
2023/09/19 05:52:22;;;;;;;9.43;2.60;;;;;;;;;;5010813;28;20038;-71
2023/09/19 05:54:49;;;;;;;8.07;2.20;;;;;;;;;;5011021;28;20041;-71
2023/09/19 05:57:15;;;;;;;9.73;2.55;;;;;;;;;;5007130;28;20042;-71
2023/09/19 05:59:42;;;;;;;12.68;2.38;;;;;;;;;;4993279;28;20411;-71
2023/09/19 06:02:09;;;;;;;9.55;2.35;;;;;;;;;;5005631;28;20041;-71
2023/09/19 06:04:35;;;;;;;8.70;2.15;;;;;;;;;;4999449;28;20133;-71
2023/09/19 06:07:02;;;;;;;7.65;2.00;;;;;;;;;;5007396;28;20486;-71
2023/09/19 06:09:29;;;;;;;10.68;2.53;;;;;;;;;;4996397;28;20054;-71
2023/09/19 06:11:55;;;;;;;11.30;2.33;;;;;;;;;;5000845;28;20034;-72
2023/09/19 06:14:23;;;;;;;11.93;2.45;;;;;;;;;;5000962;28;20041;-72
2023/09/19 06:16:49;;;;;;;13.38;2.72;;;;;;;;;;4992801;28;20048;-72
2023/09/19 06:19:15;;;;;;;12.40;2.45;;;;;;;;;;5002174;28;20046;-72
2023/09/19 06:21:42;;;;;;;12.95;2.25;;;;;;;;;;5005633;28;20045;-72
2023/09/19 06:24:08;;;;;;;9.98;2.20;;;;;;;;;;5014730;28;20467;-72
2023/09/19 06:26:34;;;;;;;11.05;2.17;;;;;;;;;;5013225;28;20488;-72
2023/09/19 06:29:00;;;;;;;9.60;2.42;;;;;;;;;;5006530;28;20038;-72
2023/09/19 06:31:26;;;;;;;9.75;2.10;;;;;;;;;;5006760;28;20492;-72
2023/09/19 06:33:52;;;;;;;9.32;2.70;;;;;;;;;;4999856;28;20045;-72
2023/09/19 06:36:19;;;;;;;11.38;2.20;;;;;;;;;;5001033;28;20030;-72
2023/09/19 06:38:45;;;;;;;10.77;2.30;;;;;;;;;;5003234;28;20046;-71
2023/09/19 06:41:12;;;;;;;7.80;2.13;;;;;;;;;;5004799;28;20034;-71
2023/09/19 06:43:39;;;;;;;14.52;3.03;;;;;;;;;;5007120;28;20101;-71
2023/09/19 06:46:07;;;;;;;12.70;2.22;;;;;;;;;;5015742;28;20048;-71
2023/09/19 06:48:33;;;;;;;11.73;2.60;;;;;;;;;;5015672;28;20048;-71
2023/09/19 06:51:04;;;;;;;8.57;2.20;;;;;;;;;;5007721;28;20034;-72
2023/09/19 06:53:31;;;;;;;6.72;2.05;;;;;;;;;;5014916;28;20038;-72
2023/09/19 06:55:57;;;;;;;9.60;2.10;;;;;;;;;;5015246;28;20034;-72
2023/09/19 06:58:23;;;;;;;7.28;1.95;;;;;;;;;;5007609;28;20084;-72
2023/09/19 07:00:52;;;;;;;10.35;2.08;;;;;;;;;;5014845;28;20377;-72
2023/09/19 07:03:21;;;;;;;9.70;2.35;;;;;;;;;;5015087;28;20456;-72
2023/09/19 07:05:47;;;;;;;8.68;2.08;;;;;;;;;;5015380;28;20065;-72
2023/09/19 07:08:14;;;;;;;7.03;2.05;;;;;;;;;;5006457;28;20543;-72
2023/09/19 07:10:40;;;;;;;9.02;2.13;;;;;;;;;;5014963;28;20038;-72
2023/09/19 07:13:10;;;;;;;8.98;2.38;;;;;;;;;;5015149;28;20033;-72
2023/09/19 07:15:39;;;;;;;5.50;1.90;;;;;;;;;;5013349;28;20033;-72
2023/09/19 07:18:06;;;;;;;16.33;2.70;;;;;;;;;;5012375;28;20038;-71
2023/09/19 07:20:34;;;;;;;12.73;2.70;;;;;;;;;;4997159;28;20038;-70
2023/09/19 07:23:00;;;;;;;9.82;2.35;;;;;;;;;;5003393;28;20109;-70
2023/09/19 07:25:26;;;;;;;6.60;2.10;;;;;;;;;;5005390;28;20117;-70
2023/09/19 07:27:56;;;;;;;10.40;2.33;;;;;;;;;;5013304;28;20049;-71
2023/09/19 07:30:23;;;;;;;10.57;2.30;;;;;;;;;;4996541;28;20456;-71
2023/09/19 07:32:49;;;;;;;9.02;2.20;;;;;;;;;;5022699;22;20038;-69
2023/09/19 07:35:15;;;;;;;12.00;2.20;;;;;;;;;;5011862;28;20100;-71
2023/09/19 07:37:41;;;;;;;10.35;2.65;;;;;;;;;;5014719;28;20073;-71
2023/09/19 07:40:07;;;;;;;11.07;2.20;;;;;;;;;;5006295;28;20034;-70
2023/09/19 07:42:35;;;;;;;10.98;1.85;;;;;;;;;;5012858;28;20041;-70
2023/09/19 07:45:01;;;;;;;10.75;2.42;;;;;;;;;;5013687;28;20511;-70
2023/09/19 07:47:27;;;;;;;10.55;2.47;;;;;;;;;;5012542;28;20045;-70
2023/09/19 07:49:55;;;;;;;13.18;2.38;;;;;;;;;;5013098;28;20042;-70
2023/09/19 07:52:22;;;;;;;11.05;2.58;;;;;;;;;;5012617;28;20092;-70
2023/09/19 07:54:49;;;;;;;8.45;2.22;;;;;;;;;;5013048;28;20506;-71
2023/09/19 07:57:15;;;;;;;6.47;2.03;;;;;;;;;;5012160;28;20042;-70
2023/09/19 07:59:42;;;;;;;10.07;2.03;;;;;;;;;;5008535;28;20049;-70
2023/09/19 08:02:15;;;;;;;9.40;2.25;;;;;;;;;;5013954;28;20502;-70
2023/09/19 08:04:41;;;;;;;7.68;2.35;;;;;;;;;;5010639;28;20034;-71
2023/09/19 08:07:09;;;;;;;9.05;2.25;;;;;;;;;;5013729;28;20033;-70
2023/09/19 08:09:35;;;;;;;8.65;2.13;;;;;;;;;;5008839;28;20041;-70
2023/09/19 08:12:02;;;;;;;9.13;2.03;;;;;;;;;;5006491;28;20041;-70
2023/09/19 08:14:29;;;;;;;7.15;2.38;;;;;;;;;;5010026;28;20046;-70
2023/09/19 08:16:58;;;;;;;9.50;2.17;;;;;;;;;;5010669;28;20518;-71
2023/09/19 08:19:28;;;;;;;9.13;2.08;;;;;;;;;;5008611;28;20045;-70
2023/09/19 08:21:58;;;;;;;9.50;2.28;;;;;;;;;;5007502;28;20045;-70
2023/09/19 08:24:24;;;;;;;11.82;2.45;;;;;;;;;;5012733;28;20046;-70
2023/09/19 08:26:51;;;;;;;10.73;2.38;;;;;;;;;;5012705;28;20112;-70
2023/09/19 08:29:17;;;;;;;8.27;2.13;;;;;;;;;;5010538;28;20042;-70
2023/09/19 08:31:43;;;;;;;9.10;2.50;;;;;;;;;;5005342;28;20038;-70
2023/09/19 08:34:09;;;;;;;14.15;3.10;;;;;;;;;;5008350;28;20038;-70
2023/09/19 08:36:37;;;;;;;12.55;2.83;;;;;;;;;;5013124;28;20097;-70
2023/09/19 08:39:03;;;;;;;12.43;2.53;;;;;;;;;;5013451;28;20042;-70
2023/09/19 08:41:29;;;;;;;13.20;2.75;;;;;;;;;;5013582;28;20038;-70
2023/09/19 08:43:55;;;;;;;10.07;2.47;;;;;;;;;;5011727;28;20091;-70
2023/09/19 08:46:22;;;;;;;13.48;2.90;;;;;;;;;;5013460;28;20073;-70
2023/09/19 08:48:54;;;;;;;10.45;2.80;;;;;;;;;;5013275;28;20037;-70
2023/09/19 08:51:34;;;;;;;10.90;2.40;;;;;;;;;;5013363;28;20080;-70
2023/09/19 08:54:07;;;;;;;11.77;2.50;;;;;;;;;;5012900;28;20448;-70
2023/09/19 08:56:34;;;;;;;10.90;2.65;;;;;;;;;;5011456;28;20045;-70
2023/09/19 08:59:02;;;;;;;13.20;2.60;;;;;;;;;;5011841;28;20076;-70
2023/09/19 09:01:29;;;;;;;11.70;2.70;;;;;;;;;;5011723;28;20456;-70
2023/09/19 09:03:56;;;;;;;9.30;2.20;;;;;;;;;;5012660;28;20044;-70
2023/09/19 09:06:23;;;;;;;12.77;2.70;;;;;;;;;;5013082;28;20046;-70
2023/09/19 09:08:49;;;;;;;10.85;2.25;;;;;;;;;;5007643;28;20451;-70
2023/09/19 09:11:17;;;;;;;15.70;2.83;;;;;;;;;;5008759;28;20041;-70
2023/09/19 09:13:44;;;;;;;8.30;2.40;;;;;;;;;;5011205;28;20491;-70
2023/09/19 09:16:10;;;;;;;10.63;2.88;;;;;;;;;;5013034;28;20083;-70
2023/09/19 09:18:37;;;;;;;12.35;2.20;;;;;;;;;;5010912;28;20042;-70
2023/09/19 09:21:06;;;;;;;12.73;2.70;;;;;;;;;;5011143;28;20121;-70
2023/09/19 09:23:32;;;;;;;10.85;3.20;;;;;;;;;;5010841;28;20060;-70
2023/09/19 09:26:01;;;;;;;9.48;2.50;;;;;;;;;;5012960;28;20562;-70
2023/09/19 09:28:28;;;;;;;10.13;2.45;;;;;;;;;;5012464;28;20578;-70
2023/09/19 09:30:54;;;;;;;16.13;2.90;;;;;;;;;;5012744;28;20042;-70
2023/09/19 09:33:21;;;;;;;13.27;2.55;;;;;;;;;;5012170;28;20445;-70
2023/09/19 09:35:52;;;;;;;11.27;2.75;;;;;;;;;;5012724;28;20037;-70
2023/09/19 09:38:25;;;;;;;13.80;2.42;;;;;;;;;;5011245;28;20041;-70
2023/09/19 09:40:54;;;;;;;9.90;2.08;;;;;;;;;;5011263;28;20143;-70
2023/09/19 09:43:36;;;;;;;11.77;2.33;;;;;;;;;;5012358;28;20042;-69
2023/09/19 09:49:14;;;;;;;8.70;2.38;;;;;;;;;;5012427;28;20049;-69
2023/09/19 09:51:34;;;;;;;9.50;2.35;;;;;;;;;;5012304;28;20061;-70
2023/09/19 09:54:14;;;;;;;12.50;2.83;;;;;;;;;;5011780;28;20426;-70
2023/09/19 09:56:59;;;;;;;12.10;2.70;;;;;;;;;;5011504;28;20080;-70
2023/09/19 09:59:46;;;;;;;10.20;2.15;;;;;;;;;;5010745;28;20046;-70
2023/09/19 10:02:13;;;;;;;9.25;2.80;;;;;;;;;;5012262;28;20512;-70
2023/09/19 10:04:51;;;;;;;9.80;2.20;;;;;;;;;;5003885;28;20046;-70
2023/09/19 10:07:51;;;;;;;12.13;2.55;;;;;;;;;;5012332;28;20042;-70
2023/09/19 10:13:12;;;;;;;12.52;2.20;;;;;;;;;;5011537;28;20057;-70
2023/09/19 10:15:40;;;;;;;11.57;2.03;;;;;;;;;;5012532;28;20073;-70
2023/09/19 10:18:08;;;;;;;11.13;2.25;;;;;;;;;;5009662;28;20508;-70
2023/09/19 10:20:43;;;;;;;9.85;1.88;;;;;;;;;;5011771;28;20050;-70
2023/09/19 10:23:11;;;;;;;9.02;2.42;;;;;;;;;;5011577;28;20057;-70
2023/09/19 10:25:38;;;;;;;10.18;2.72;;;;;;;;;;5010715;28;20124;-70
2023/09/19 10:28:10;;;;;;;11.02;2.42;;;;;;;;;;5011596;28;20054;-71
2023/09/19 10:30:38;;;;;;;11.48;2.47;;;;;;;;;;5010449;28;20046;-70
2023/09/19 10:33:07;;;;;;;9.93;2.63;;;;;;;;;;5011495;28;20038;-70
2023/09/19 10:35:34;;;;;;;10.40;2.35;;;;;;;;;;5012026;28;20491;-70
2023/09/19 10:38:01;;;;;;;10.45;2.70;;;;;;;;;;5009977;28;20042;-70
2023/09/19 10:40:31;;;;;;;7.53;2.13;;;;;;;;;;5008997;28;20053;-70
2023/09/19 10:43:03;;;;;;;11.35;2.80;;;;;;;;;;5008530;28;20042;-70
2023/09/19 10:45:31;;;;;;;11.02;2.78;;;;;;;;;;5006056;28;20528;-70
2023/09/19 10:47:57;;;;;;;14.52;2.67;;;;;;;;;;5011591;28;20037;-70
2023/09/19 10:50:24;;;;;;;8.43;3.65;;;;;;;;;;5007193;28;20088;-70
2023/09/19 10:52:57;;;;;;;11.98;2.97;;;;;;;;;;5010515;28;20069;-70
2023/09/19 10:55:24;;;;;;;9.95;2.53;;;;;;;;;;5007746;28;20060;-71
2023/09/19 10:57:50;;;;;;;13.82;2.60;;;;;;;;;;5004550;28;20395;-70
2023/09/19 11:00:28;;;;;;;9.98;2.40;;;;;;;;;;5010615;28;20045;-70
2023/09/19 11:03:11;;;;;;;9.35;2.20;;;;;;;;;;5009842;28;20380;-70
2023/09/19 11:05:40;;;;;;;9.55;2.40;;;;;;;;;;5011651;28;20050;-70
2023/09/19 11:08:07;;;;;;;8.68;2.35;;;;;;;;;;5012480;28;20038;-70
2023/09/19 11:10:49;;;;;;;10.77;2.55;;;;;;;;;;5015042;28;20046;-70
2023/09/19 11:13:34;;;;;;;11.43;2.65;;;;;;;;;;5010728;28;21224;-70
2023/09/19 11:16:04;;;;;;;11.43;2.33;;;;;;;;;;4997340;28;20041;-70
2023/09/19 11:18:43;;;;;;;10.63;2.33;;;;;;;;;;5012007;28;20066;-69
2023/09/19 11:21:33;;;;;;;12.98;2.50;;;;;;;;;;5015232;28;20042;-70
2023/09/19 11:24:25;;;;;;;10.70;2.50;;;;;;;;;;5012437;28;20077;-69
2023/09/19 11:26:53;;;;;;;10.13;2.22;;;;;;;;;;5013903;28;20060;-69
2023/09/19 11:29:29;;;;;;;8.70;2.60;;;;;;;;;;5014761;28;20037;-69
2023/09/19 11:32:01;;;;;;;10.70;2.42;;;;;;;;;;5014951;28;20037;-69
2023/09/19 11:34:50;;;;;;;7.88;2.10;;;;;;;;;;5012298;28;20038;-69
2023/09/19 11:37:16;;;;;;;8.88;2.45;;;;;;;;;;5013907;28;20037;-69
2023/09/19 11:40:01;;;;;;;10.80;2.38;;;;;;;;;;5013596;28;20041;-70
2023/09/19 11:42:47;;;;;;;9.40;1.92;;;;;;;;;;5014763;28;20052;-70
2023/09/19 11:45:32;;;;;;;11.75;2.17;;;;;;;;;;5014074;28;20557;-69
2023/09/19 11:47:59;;;;;;;7.13;1.90;;;;;;;;;;5006407;28;20038;-69
2023/09/19 11:50:25;;;;;;;7.13;1.77;;;;;;;;;;5013682;28;20061;-69
2023/09/19 11:52:52;;;;;;;7.68;1.80;;;;;;;;;;5013438;28;20184;-70
2023/09/19 11:55:21;;;;;;;7.55;2.00;;;;;;;;;;5013946;28;20026;-70
2023/09/19 11:57:50;;;;;;;6.60;2.17;;;;;;;;;;5013687;28;20081;-70
2023/09/19 12:00:21;;;;;;;7.20;2.10;;;;;;;;;;5013996;28;20099;-70
2023/09/19 12:02:47;;;;;;;7.47;1.90;;;;;;;;;;5011101;28;20053;-70
2023/09/19 12:05:15;;;;;;;7.75;1.83;;;;;;;;;;5012391;28;20042;-70
2023/09/19 12:07:48;;;;;;;10.82;2.70;;;;;;;;;;5014190;28;20042;-70
2023/09/19 12:10:16;;;;;;;9.35;2.28;;;;;;;;;;5011154;28;20048;-70
2023/09/19 12:12:48;;;;;;;9.13;2.17;;;;;;;;;;5011521;28;20048;-70
2023/09/19 12:15:14;;;;;;;11.63;2.10;;;;;;;;;;5013657;28;20172;-70
2023/09/19 12:17:42;;;;;;;12.73;2.47;;;;;;;;;;5009361;28;20037;-70
2023/09/19 12:20:15;;;;;;;11.25;2.15;;;;;;;;;;5005549;28;20045;-69
2023/09/19 12:22:43;;;;;;;8.20;2.22;;;;;;;;;;5011947;28;20049;-69
2023/09/19 12:25:11;;;;;;;10.32;2.33;;;;;;;;;;5013456;28;20034;-70
2023/09/19 12:27:52;;;;;;;7.95;1.77;;;;;;;;;;5013119;28;20041;-70
2023/09/19 12:30:19;;;;;;;9.55;2.22;;;;;;;;;;5010229;28;20081;-70
2023/09/19 12:32:47;;;;;;;8.70;2.50;;;;;;;;;;5011170;28;20042;-70
2023/09/19 12:35:28;;;;;;;7.80;1.40;;;;;;;;;;5011655;28;20042;-70
2023/09/19 12:37:55;;;;;;;12.20;2.38;;;;;;;;;;5013329;28;20049;-70
2023/09/19 12:40:28;;;;;;;8.77;2.25;;;;;;;;;;5009755;28;20081;-70
2023/09/19 12:43:04;;;;;;;8.00;2.10;;;;;;;;;;5005017;28;20135;-70
2023/09/19 12:45:30;;;;;;;9.13;2.20;;;;;;;;;;5012519;28;20048;-70
2023/09/19 12:48:16;;;;;;;6.28;1.98;;;;;;;;;;5011307;28;20080;-69
2023/09/19 12:51:05;;;;;;;9.57;2.00;;;;;;;;;;5010013;28;20050;-69
2023/09/19 12:53:33;;;;;;;9.68;2.45;;;;;;;;;;5009074;28;20099;-69
2023/09/19 12:56:00;;;;;;;11.07;1.85;;;;;;;;;;5012113;28;20042;-70
2023/09/19 12:58:26;;;;;;;8.73;2.05;;;;;;;;;;5011910;28;20517;-70
2023/09/19 13:00:52;;;;;;;13.98;2.53;;;;;;;;;;5010643;28;20124;-70
2023/09/19 13:03:22;;;;;;;6.80;1.77;;;;;;;;;;5011541;28;20049;-70
2023/09/19 13:05:48;;;;;;;13.55;2.35;;;;;;;;;;5010872;28;20139;-70
2023/09/19 13:08:19;;;;;;;6.70;2.00;;;;;;;;;;5011312;28;20610;-69
2023/09/19 13:11:09;;;;;;;10.85;2.22;;;;;;;;;;5005730;28;20041;-70
2023/09/19 13:13:37;;;;;;;6.30;2.28;;;;;;;;;;5011488;28;20054;-69
2023/09/19 13:16:04;;;;;;;7.53;1.55;;;;;;;;;;5012416;28;20042;-70
2023/09/19 13:18:31;;;;;;;8.50;1.85;;;;;;;;;;5010452;28;20041;-70
2023/09/19 13:21:12;;;;;;;7.90;1.75;;;;;;;;;;5013210;28;20045;-70
2023/09/19 13:23:38;;;;;;;5.03;1.50;;;;;;;;;;5005314;28;20096;-69
2023/09/19 13:26:06;;;;;;;10.93;1.80;;;;;;;;;;5011312;28;20076;-69
2023/09/19 13:28:34;;;;;;;10.98;1.75;;;;;;;;;;5010963;28;20054;-69
2023/09/19 13:31:00;;;;;;;7.03;1.85;;;;;;;;;;5022911;23;20524;-70
2023/09/19 13:33:26;;;;;;;9.15;2.08;;;;;;;;;;5006285;28;20038;-70
2023/09/19 13:35:52;;;;;;;8.82;1.85;;;;;;;;;;4993792;28;20496;-70
2023/09/19 13:38:21;;;;;;;6.40;1.33;;;;;;;;;;4983966;28;20038;-70
2023/09/19 13:40:48;;;;;;;9.27;1.65;;;;;;;;;;4989502;28;20046;-70
2023/09/19 13:43:14;;;;;;;11.30;1.67;;;;;;;;;;4987096;28;20081;-70
2023/09/19 13:45:42;;;;;;;7.10;1.42;;;;;;;;;;4992618;28;20122;-70
2023/09/19 13:48:08;;;;;;;6.72;1.88;;;;;;;;;;4992173;28;20400;-70
2023/09/19 13:50:41;;;;;;;7.55;1.73;;;;;;;;;;4989387;28;20125;-70
2023/09/19 13:53:08;;;;;;;6.80;1.52;;;;;;;;;;4997762;28;20065;-70
2023/09/19 13:55:34;;;;;;;10.55;1.50;;;;;;;;;;4992906;28;20456;-70
2023/09/19 13:58:00;;;;;;;6.78;1.80;;;;;;;;;;4990508;28;20125;-70
2023/09/19 14:00:27;;;;;;;3.97;1.42;;;;;;;;;;4989354;28;20061;-70
2023/09/19 14:02:53;;;;;;;9.52;1.60;;;;;;;;;;4997557;28;20053;-69
2023/09/19 14:05:20;;;;;;;11.75;1.70;;;;;;;;;;4990489;28;20042;-69
2023/09/19 14:07:46;;;;;;;7.35;1.85;;;;;;;;;;4990552;28;20054;-69
2023/09/19 14:10:12;;;;;;;8.48;1.70;;;;;;;;;;4986819;28;20042;-69
2023/09/19 14:12:42;;;;;;;6.13;1.48;;;;;;;;;;4987980;28;20030;-69
2023/09/19 14:15:08;;;;;;;4.28;1.42;;;;;;;;;;4988541;28;20125;-69
2023/09/19 14:17:34;;;;;;;5.20;1.50;;;;;;;;;;4989249;28;20034;-69
2023/09/19 14:20:00;;;;;;;4.88;1.30;;;;;;;;;;4989438;28;20073;-69
2023/09/19 14:22:26;;;;;;;8.27;1.75;;;;;;;;;;4988182;28;20527;-69
2023/09/19 14:24:52;;;;;;;6.15;1.30;;;;;;;;;;4982270;28;20038;-69
2023/09/19 14:27:18;;;;;;;5.97;1.80;;;;;;;;;;4984770;28;20074;-70
2023/09/19 14:29:44;;;;;;;9.70;1.65;;;;;;;;;;4987780;28;20057;-70
2023/09/19 14:32:11;;;;;;;5.75;1.35;;;;;;;;;;4986945;28;20394;-70
2023/09/19 14:34:41;;;;;;;4.93;1.08;;;;;;;;;;4975567;28;20047;-70
2023/09/19 14:37:07;;;;;;;7.57;1.98;;;;;;;;;;4991658;28;20070;-70
2023/09/19 14:39:33;;;;;;;5.10;1.13;;;;;;;;;;4992113;28;20047;-70
2023/09/19 14:41:59;;;;;;;6.20;1.13;;;;;;;;;;4987799;28;20057;-70
2023/09/19 14:44:25;;;;;;;5.60;1.17;;;;;;;;;;4991371;28;20046;-71
2023/09/19 14:46:51;;;;;;;3.95;1.20;;;;;;;;;;5797365;23;20545;-66
2023/09/19 14:49:17;;;;;;;5.57;1.15;;;;;;;;;;5027533;28;20124;-67
2023/09/19 14:51:47;;;;;;;6.28;1.30;;;;;;;;;;5038557;28;20386;-67
2023/09/19 14:54:16;;;;;;;3.97;1.00;;;;;;;;;;5025833;28;20046;-67